sensor_id;sensor_type;location;lat;lon;timestamp;P1;durP1;ratioP1;P2;durP2;ratioP2
63492;SDS011;49638;47.526;10.028;2023-11-21T00:01:27;3.80;;;1.30;;
63492;SDS011;49638;47.526;10.028;2023-11-21T00:04:27;5.32;;;0.88;;
63492;SDS011;49638;47.526;10.028;2023-11-21T00:07:27;4.47;;;1.00;;
63492;SDS011;49638;47.526;10.028;2023-11-21T00:10:28;4.65;;;1.00;;
63492;SDS011;49638;47.526;10.028;2023-11-21T00:13:28;6.18;;;1.08;;
63492;SDS011;49638;47.526;10.028;2023-11-21T00:16:28;2.75;;;0.88;;
63492;SDS011;49638;47.526;10.028;2023-11-21T00:19:29;1.92;;;0.75;;
63492;SDS011;49638;47.526;10.028;2023-11-21T00:22:29;3.85;;;0.85;;
63492;SDS011;49638;47.526;10.028;2023-11-21T00:25:29;4.28;;;1.02;;
63492;SDS011;49638;47.526;10.028;2023-11-21T00:28:31;5.68;;;1.05;;
63492;SDS011;49638;47.526;10.028;2023-11-21T00:31:32;5.07;;;1.13;;
63492;SDS011;49638;47.526;10.028;2023-11-21T00:34:32;4.20;;;0.82;;
63492;SDS011;49638;47.526;10.028;2023-11-21T00:37:33;3.03;;;1.00;;
63492;SDS011;49638;47.526;10.028;2023-11-21T00:40:33;2.97;;;1.17;;
63492;SDS011;49638;47.526;10.028;2023-11-21T00:43:33;4.18;;;1.00;;
63492;SDS011;49638;47.526;10.028;2023-11-21T00:46:33;3.85;;;1.00;;
63492;SDS011;49638;47.526;10.028;2023-11-21T00:49:34;3.65;;;1.05;;
63492;SDS011;49638;47.526;10.028;2023-11-21T00:52:34;3.38;;;0.98;;
63492;SDS011;49638;47.526;10.028;2023-11-21T00:55:34;3.05;;;0.80;;
63492;SDS011;49638;47.526;10.028;2023-11-21T00:58:35;3.75;;;1.00;;
63492;SDS011;49638;47.526;10.028;2023-11-21T01:01:35;4.40;;;0.98;;
63492;SDS011;49638;47.526;10.028;2023-11-21T01:04:35;5.07;;;1.25;;
63492;SDS011;49638;47.526;10.028;2023-11-21T01:07:36;4.13;;;1.30;;
63492;SDS011;49638;47.526;10.028;2023-11-21T01:10:37;4.47;;;1.20;;
63492;SDS011;49638;47.526;10.028;2023-11-21T01:13:38;3.53;;;1.08;;
63492;SDS011;49638;47.526;10.028;2023-11-21T01:16:39;2.50;;;0.82;;
63492;SDS011;49638;47.526;10.028;2023-11-21T01:19:39;4.50;;;1.10;;
63492;SDS011;49638;47.526;10.028;2023-11-21T01:22:40;4.10;;;1.00;;
63492;SDS011;49638;47.526;10.028;2023-11-21T01:25:40;5.25;;;1.10;;
63492;SDS011;49638;47.526;10.028;2023-11-21T01:28:41;2.35;;;0.90;;
63492;SDS011;49638;47.526;10.028;2023-11-21T01:31:41;3.35;;;0.88;;
63492;SDS011;49638;47.526;10.028;2023-11-21T01:34:41;5.35;;;1.02;;
63492;SDS011;49638;47.526;10.028;2023-11-21T01:37:41;5.25;;;1.15;;
63492;SDS011;49638;47.526;10.028;2023-11-21T01:40:42;5.45;;;1.00;;
63492;SDS011;49638;47.526;10.028;2023-11-21T01:43:42;5.93;;;1.00;;
63492;SDS011;49638;47.526;10.028;2023-11-21T01:46:42;5.75;;;1.00;;
63492;SDS011;49638;47.526;10.028;2023-11-21T01:49:43;4.65;;;1.17;;
63492;SDS011;49638;47.526;10.028;2023-11-21T01:52:46;5.13;;;0.98;;
63492;SDS011;49638;47.526;10.028;2023-11-21T01:55:48;0.90;;;0.50;;
63492;SDS011;49638;47.526;10.028;2023-11-21T01:58:49;5.13;;;0.80;;
63492;SDS011;49638;47.526;10.028;2023-11-21T02:01:49;4.90;;;0.95;;
63492;SDS011;49638;47.526;10.028;2023-11-21T02:04:53;1.98;;;0.80;;
63492;SDS011;49638;47.526;10.028;2023-11-21T02:07:53;3.22;;;0.80;;
63492;SDS011;49638;47.526;10.028;2023-11-21T02:10:54;1.92;;;0.70;;
63492;SDS011;49638;47.526;10.028;2023-11-21T02:13:54;3.47;;;0.73;;
63492;SDS011;49638;47.526;10.028;2023-11-21T02:16:54;2.10;;;0.75;;
63492;SDS011;49638;47.526;10.028;2023-11-21T02:19:55;2.38;;;0.85;;
63492;SDS011;49638;47.526;10.028;2023-11-21T02:22:56;2.35;;;0.73;;
63492;SDS011;49638;47.526;10.028;2023-11-21T02:26:00;2.97;;;0.70;;
63492;SDS011;49638;47.526;10.028;2023-11-21T02:29:04;5.68;;;0.98;;
63492;SDS011;49638;47.526;10.028;2023-11-21T02:32:04;4.28;;;0.80;;
63492;SDS011;49638;47.526;10.028;2023-11-21T02:35:05;2.42;;;0.60;;
63492;SDS011;49638;47.526;10.028;2023-11-21T02:38:08;4.88;;;0.90;;
63492;SDS011;49638;47.526;10.028;2023-11-21T02:41:08;2.88;;;0.85;;
63492;SDS011;49638;47.526;10.028;2023-11-21T02:44:08;3.00;;;0.80;;
63492;SDS011;49638;47.526;10.028;2023-11-21T02:47:09;3.75;;;0.80;;
63492;SDS011;49638;47.526;10.028;2023-11-21T02:50:10;3.00;;;0.98;;
63492;SDS011;49638;47.526;10.028;2023-11-21T02:53:10;5.93;;;1.00;;
63492;SDS011;49638;47.526;10.028;2023-11-21T02:56:10;1.35;;;0.90;;
63492;SDS011;49638;47.526;10.028;2023-11-21T02:59:11;3.97;;;0.90;;
63492;SDS011;49638;47.526;10.028;2023-11-21T03:02:11;4.93;;;1.05;;
63492;SDS011;49638;47.526;10.028;2023-11-21T03:05:12;2.45;;;1.00;;
63492;SDS011;49638;47.526;10.028;2023-11-21T03:08:12;6.50;;;1.23;;
63492;SDS011;49638;47.526;10.028;2023-11-21T03:11:12;1.52;;;0.90;;
63492;SDS011;49638;47.526;10.028;2023-11-21T03:14:13;4.00;;;0.90;;
63492;SDS011;49638;47.526;10.028;2023-11-21T03:17:13;2.30;;;0.60;;
63492;SDS011;49638;47.526;10.028;2023-11-21T03:20:14;2.30;;;0.70;;
63492;SDS011;49638;47.526;10.028;2023-11-21T03:23:16;2.85;;;1.00;;
63492;SDS011;49638;47.526;10.028;2023-11-21T03:26:16;1.52;;;0.70;;
63492;SDS011;49638;47.526;10.028;2023-11-21T03:29:16;6.07;;;1.00;;
63492;SDS011;49638;47.526;10.028;2023-11-21T03:32:17;3.55;;;1.00;;
63492;SDS011;49638;47.526;10.028;2023-11-21T03:35:18;2.67;;;0.88;;
63492;SDS011;49638;47.526;10.028;2023-11-21T03:38:21;2.63;;;0.75;;
63492;SDS011;49638;47.526;10.028;2023-11-21T03:41:21;3.80;;;1.10;;
63492;SDS011;49638;47.526;10.028;2023-11-21T03:44:21;1.95;;;0.82;;
63492;SDS011;49638;47.526;10.028;2023-11-21T03:47:22;2.42;;;0.80;;
63492;SDS011;49638;47.526;10.028;2023-11-21T03:50:22;1.80;;;0.70;;
63492;SDS011;49638;47.526;10.028;2023-11-21T03:53:22;0.65;;;0.50;;
63492;SDS011;49638;47.526;10.028;2023-11-21T03:56:23;2.35;;;0.60;;
63492;SDS011;49638;47.526;10.028;2023-11-21T03:59:23;1.20;;;0.50;;
63492;SDS011;49638;47.526;10.028;2023-11-21T04:02:24;1.98;;;0.70;;
63492;SDS011;49638;47.526;10.028;2023-11-21T04:05:26;5.05;;;0.68;;
63492;SDS011;49638;47.526;10.028;2023-11-21T04:08:26;4.15;;;0.70;;
63492;SDS011;49638;47.526;10.028;2023-11-21T04:11:26;1.10;;;0.60;;
63492;SDS011;49638;47.526;10.028;2023-11-21T04:14:28;2.33;;;0.80;;
63492;SDS011;49638;47.526;10.028;2023-11-21T04:17:28;4.68;;;1.15;;
63492;SDS011;49638;47.526;10.028;2023-11-21T04:20:29;3.28;;;0.85;;
63492;SDS011;49638;47.526;10.028;2023-11-21T04:23:29;2.83;;;0.80;;
63492;SDS011;49638;47.526;10.028;2023-11-21T04:26:31;2.38;;;0.73;;
63492;SDS011;49638;47.526;10.028;2023-11-21T04:29:31;3.53;;;0.75;;
63492;SDS011;49638;47.526;10.028;2023-11-21T04:32:32;4.03;;;1.10;;
63492;SDS011;49638;47.526;10.028;2023-11-21T04:35:33;5.50;;;0.90;;
63492;SDS011;49638;47.526;10.028;2023-11-21T04:38:33;1.60;;;0.70;;
63492;SDS011;49638;47.526;10.028;2023-11-21T04:41:34;3.72;;;1.02;;
63492;SDS011;49638;47.526;10.028;2023-11-21T04:44:34;4.40;;;0.65;;
63492;SDS011;49638;47.526;10.028;2023-11-21T04:47:35;5.90;;;1.02;;
63492;SDS011;49638;47.526;10.028;2023-11-21T04:50:36;2.80;;;0.90;;
63492;SDS011;49638;47.526;10.028;2023-11-21T04:53:36;2.58;;;1.00;;
63492;SDS011;49638;47.526;10.028;2023-11-21T04:56:36;3.22;;;1.00;;
63492;SDS011;49638;47.526;10.028;2023-11-21T04:59:36;4.70;;;0.80;;
63492;SDS011;49638;47.526;10.028;2023-11-21T05:02:37;1.40;;;0.85;;
63492;SDS011;49638;47.526;10.028;2023-11-21T05:05:38;5.43;;;1.00;;
63492;SDS011;49638;47.526;10.028;2023-11-21T05:08:38;3.25;;;0.80;;
63492;SDS011;49638;47.526;10.028;2023-11-21T05:11:38;3.22;;;1.02;;
63492;SDS011;49638;47.526;10.028;2023-11-21T05:14:40;1.52;;;0.98;;
63492;SDS011;49638;47.526;10.028;2023-11-21T05:17:42;2.50;;;0.80;;
63492;SDS011;49638;47.526;10.028;2023-11-21T05:20:42;3.47;;;1.00;;
63492;SDS011;49638;47.526;10.028;2023-11-21T05:23:43;2.22;;;0.70;;
63492;SDS011;49638;47.526;10.028;2023-11-21T05:26:43;3.10;;;0.98;;
63492;SDS011;49638;47.526;10.028;2023-11-21T05:29:43;4.10;;;1.10;;
63492;SDS011;49638;47.526;10.028;2023-11-21T05:32:43;3.70;;;1.10;;
63492;SDS011;49638;47.526;10.028;2023-11-21T05:35:44;4.70;;;1.20;;
63492;SDS011;49638;47.526;10.028;2023-11-21T05:38:44;3.38;;;1.20;;
63492;SDS011;49638;47.526;10.028;2023-11-21T05:41:45;5.43;;;1.35;;
63492;SDS011;49638;47.526;10.028;2023-11-21T05:44:46;3.30;;;1.10;;
63492;SDS011;49638;47.526;10.028;2023-11-21T05:47:46;3.33;;;1.20;;
63492;SDS011;49638;47.526;10.028;2023-11-21T05:50:47;3.08;;;1.05;;
63492;SDS011;49638;47.526;10.028;2023-11-21T05:53:49;4.10;;;1.38;;
63492;SDS011;49638;47.526;10.028;2023-11-21T05:56:50;2.38;;;1.15;;
63492;SDS011;49638;47.526;10.028;2023-11-21T05:59:50;3.58;;;1.38;;
63492;SDS011;49638;47.526;10.028;2023-11-21T06:02:51;2.85;;;1.10;;
63492;SDS011;49638;47.526;10.028;2023-11-21T06:05:53;3.67;;;1.30;;
63492;SDS011;49638;47.526;10.028;2023-11-21T06:08:54;2.50;;;0.90;;
63492;SDS011;49638;47.526;10.028;2023-11-21T06:11:54;2.55;;;1.02;;
63492;SDS011;49638;47.526;10.028;2023-11-21T06:14:54;4.15;;;1.15;;
63492;SDS011;49638;47.526;10.028;2023-11-21T06:17:55;1.90;;;0.82;;
63492;SDS011;49638;47.526;10.028;2023-11-21T06:20:55;2.00;;;0.80;;
63492;SDS011;49638;47.526;10.028;2023-11-21T06:23:56;5.40;;;0.88;;
63492;SDS011;49638;47.526;10.028;2023-11-21T06:26:57;1.02;;;0.98;;
63492;SDS011;49638;47.526;10.028;2023-11-21T06:29:57;3.28;;;0.90;;
63492;SDS011;49638;47.526;10.028;2023-11-21T06:32:57;1.73;;;1.63;;
63492;SDS011;49638;47.526;10.028;2023-11-21T06:35:57;2.38;;;0.93;;
63492;SDS011;49638;47.526;10.028;2023-11-21T06:38:58;1.30;;;1.20;;
63492;SDS011;49638;47.526;10.028;2023-11-21T06:41:58;0.50;;;0.40;;
63492;SDS011;49638;47.526;10.028;2023-11-21T06:45:00;13.50;;;10.18;;
63492;SDS011;49638;47.526;10.028;2023-11-21T06:48:03;1.85;;;1.27;;
63492;SDS011;49638;47.526;10.028;2023-11-21T06:51:04;0.98;;;0.52;;
63492;SDS011;49638;47.526;10.028;2023-11-21T06:54:05;1.88;;;1.30;;
63492;SDS011;49638;47.526;10.028;2023-11-21T06:57:05;0.55;;;0.50;;
63492;SDS011;49638;47.526;10.028;2023-11-21T07:00:06;3.47;;;1.05;;
63492;SDS011;49638;47.526;10.028;2023-11-21T07:03:09;1.27;;;0.60;;
63492;SDS011;49638;47.526;10.028;2023-11-21T07:06:09;1.10;;;0.50;;
63492;SDS011;49638;47.526;10.028;2023-11-21T07:09:10;0.90;;;0.30;;
63492;SDS011;49638;47.526;10.028;2023-11-21T07:12:11;3.03;;;2.70;;
63492;SDS011;49638;47.526;10.028;2023-11-21T07:15:12;2.58;;;1.67;;
63492;SDS011;49638;47.526;10.028;2023-11-21T07:18:12;0.63;;;0.60;;
63492;SDS011;49638;47.526;10.028;2023-11-21T07:21:13;1.27;;;0.52;;
63492;SDS011;49638;47.526;10.028;2023-11-21T07:24:15;7.82;;;4.88;;
63492;SDS011;49638;47.526;10.028;2023-11-21T07:27:16;1.73;;;1.20;;
63492;SDS011;49638;47.526;10.028;2023-11-21T07:30:16;4.35;;;1.20;;
63492;SDS011;49638;47.526;10.028;2023-11-21T07:33:17;0.95;;;0.80;;
63492;SDS011;49638;47.526;10.028;2023-11-21T07:36:17;1.42;;;1.00;;
63492;SDS011;49638;47.526;10.028;2023-11-21T07:39:18;2.20;;;0.80;;
63492;SDS011;49638;47.526;10.028;2023-11-21T07:42:19;0.80;;;0.70;;
63492;SDS011;49638;47.526;10.028;2023-11-21T07:45:19;2.33;;;0.70;;
63492;SDS011;49638;47.526;10.028;2023-11-21T07:48:21;0.75;;;0.63;;
63492;SDS011;49638;47.526;10.028;2023-11-21T07:51:22;1.88;;;0.63;;
63492;SDS011;49638;47.526;10.028;2023-11-21T07:54:22;0.60;;;0.60;;
63492;SDS011;49638;47.526;10.028;2023-11-21T07:57:22;0.52;;;0.50;;
63492;SDS011;49638;47.526;10.028;2023-11-21T08:00:22;4.43;;;0.90;;
63492;SDS011;49638;47.526;10.028;2023-11-21T08:03:24;28.85;;;14.70;;
63492;SDS011;49638;47.526;10.028;2023-11-21T08:06:26;21.90;;;13.95;;
63492;SDS011;49638;47.526;10.028;2023-11-21T08:09:26;7.65;;;4.65;;
63492;SDS011;49638;47.526;10.028;2023-11-21T08:12:27;2.13;;;1.65;;
63492;SDS011;49638;47.526;10.028;2023-11-21T08:15:27;8.98;;;6.72;;
63492;SDS011;49638;47.526;10.028;2023-11-21T08:18:28;6.28;;;4.78;;
63492;SDS011;49638;47.526;10.028;2023-11-21T08:21:28;2.33;;;2.00;;
63492;SDS011;49638;47.526;10.028;2023-11-21T08:24:29;1.05;;;0.60;;
63492;SDS011;49638;47.526;10.028;2023-11-21T08:27:29;0.85;;;0.52;;
63492;SDS011;49638;47.526;10.028;2023-11-21T08:30:29;0.60;;;0.60;;
63492;SDS011;49638;47.526;10.028;2023-11-21T08:33:30;1.77;;;0.50;;
63492;SDS011;49638;47.526;10.028;2023-11-21T08:36:30;0.75;;;0.40;;
63492;SDS011;49638;47.526;10.028;2023-11-21T08:39:31;0.85;;;0.40;;
63492;SDS011;49638;47.526;10.028;2023-11-21T08:42:31;0.47;;;0.40;;
63492;SDS011;49638;47.526;10.028;2023-11-21T08:45:32;0.50;;;0.50;;
63492;SDS011;49638;47.526;10.028;2023-11-21T08:48:37;0.65;;;0.63;;
63492;SDS011;49638;47.526;10.028;2023-11-21T08:51:37;1.33;;;0.60;;
63492;SDS011;49638;47.526;10.028;2023-11-21T08:54:38;1.25;;;0.50;;
63492;SDS011;49638;47.526;10.028;2023-11-21T08:57:39;0.40;;;0.40;;
63492;SDS011;49638;47.526;10.028;2023-11-21T09:00:40;0.60;;;0.30;;
63492;SDS011;49638;47.526;10.028;2023-11-21T09:03:40;0.20;;;0.20;;
63492;SDS011;49638;47.526;10.028;2023-11-21T09:06:41;0.85;;;0.30;;
63492;SDS011;49638;47.526;10.028;2023-11-21T09:09:41;0.80;;;0.10;;
63492;SDS011;49638;47.526;10.028;2023-11-21T09:12:42;0.10;;;0.10;;
63492;SDS011;49638;47.526;10.028;2023-11-21T09:15:43;0.40;;;0.35;;
63492;SDS011;49638;47.526;10.028;2023-11-21T09:18:46;0.87;;;0.30;;
63492;SDS011;49638;47.526;10.028;2023-11-21T09:21:46;1.17;;;0.38;;
63492;SDS011;49638;47.526;10.028;2023-11-21T09:24:46;0.15;;;0.15;;
63492;SDS011;49638;47.526;10.028;2023-11-21T09:27:48;0.52;;;0.20;;
63492;SDS011;49638;47.526;10.028;2023-11-21T09:30:48;0.77;;;0.30;;
63492;SDS011;49638;47.526;10.028;2023-11-21T09:33:50;0.55;;;0.52;;
63492;SDS011;49638;47.526;10.028;2023-11-21T09:36:50;0.82;;;0.65;;
63492;SDS011;49638;47.526;10.028;2023-11-21T09:39:51;0.52;;;0.40;;
63492;SDS011;49638;47.526;10.028;2023-11-21T09:42:55;0.60;;;0.60;;
63492;SDS011;49638;47.526;10.028;2023-11-21T09:46:00;1.38;;;0.70;;
63492;SDS011;49638;47.526;10.028;2023-11-21T09:49:02;0.57;;;0.57;;
63492;SDS011;49638;47.526;10.028;2023-11-21T09:52:05;1.95;;;0.50;;
63492;SDS011;49638;47.526;10.028;2023-11-21T09:58:13;1.83;;;0.80;;
63492;SDS011;49638;47.526;10.028;2023-11-21T10:01:14;1.20;;;0.70;;
63492;SDS011;49638;47.526;10.028;2023-11-21T10:04:17;1.95;;;0.90;;
63492;SDS011;49638;47.526;10.028;2023-11-21T10:07:17;0.85;;;0.80;;
63492;SDS011;49638;47.526;10.028;2023-11-21T10:10:20;2.17;;;1.42;;
63492;SDS011;49638;47.526;10.028;2023-11-21T10:13:21;1.40;;;0.90;;
63492;SDS011;49638;47.526;10.028;2023-11-21T10:16:22;2.30;;;1.38;;
63492;SDS011;49638;47.526;10.028;2023-11-21T10:19:25;1.10;;;1.00;;
63492;SDS011;49638;47.526;10.028;2023-11-21T10:22:27;1.23;;;1.13;;
63492;SDS011;49638;47.526;10.028;2023-11-21T10:25:28;0.47;;;0.47;;
63492;SDS011;49638;47.526;10.028;2023-11-21T10:28:30;0.60;;;0.60;;
63492;SDS011;49638;47.526;10.028;2023-11-21T10:31:31;0.40;;;0.40;;
63492;SDS011;49638;47.526;10.028;2023-11-21T10:34:32;0.75;;;0.30;;
63492;SDS011;49638;47.526;10.028;2023-11-21T10:37:33;0.20;;;0.20;;
63492;SDS011;49638;47.526;10.028;2023-11-21T10:40:34;1.30;;;0.30;;
63492;SDS011;49638;47.526;10.028;2023-11-21T10:43:34;0.30;;;0.30;;
63492;SDS011;49638;47.526;10.028;2023-11-21T10:46:34;1.10;;;0.50;;
63492;SDS011;49638;47.526;10.028;2023-11-21T10:49:35;0.90;;;0.60;;
63492;SDS011;49638;47.526;10.028;2023-11-21T10:52:37;0.50;;;0.50;;
63492;SDS011;49638;47.526;10.028;2023-11-21T10:55:39;1.35;;;1.00;;
63492;SDS011;49638;47.526;10.028;2023-11-21T10:58:40;1.45;;;0.70;;
63492;SDS011;49638;47.526;10.028;2023-11-21T11:01:44;0.70;;;0.70;;
63492;SDS011;49638;47.526;10.028;2023-11-21T11:04:45;0.45;;;0.45;;
63492;SDS011;49638;47.526;10.028;2023-11-21T11:07:47;1.30;;;0.95;;
63492;SDS011;49638;47.526;10.028;2023-11-21T11:10:52;1.27;;;0.90;;
63492;SDS011;49638;47.526;10.028;2023-11-21T11:13:53;0.93;;;0.90;;
63492;SDS011;49638;47.526;10.028;2023-11-21T11:16:54;1.05;;;0.90;;
63492;SDS011;49638;47.526;10.028;2023-11-21T11:19:55;1.17;;;1.10;;
63492;SDS011;49638;47.526;10.028;2023-11-21T11:36:13;1.30;;;1.20;;
63492;SDS011;49638;47.526;10.028;2023-11-21T11:39:29;4.63;;;3.45;;
63492;SDS011;49638;47.526;10.028;2023-11-21T11:42:31;3.13;;;2.30;;
63492;SDS011;49638;47.526;10.028;2023-11-21T11:45:32;2.95;;;1.70;;
63492;SDS011;49638;47.526;10.028;2023-11-21T11:48:37;3.00;;;2.67;;
63492;SDS011;49638;47.526;10.028;2023-11-21T11:51:39;1.30;;;1.20;;
63492;SDS011;49638;47.526;10.028;2023-11-21T11:54:40;2.17;;;1.42;;
63492;SDS011;49638;47.526;10.028;2023-11-21T11:57:40;2.55;;;1.60;;
63492;SDS011;49638;47.526;10.028;2023-11-21T12:00:42;1.75;;;1.40;;
63492;SDS011;49638;47.526;10.028;2023-11-21T12:03:43;3.25;;;1.55;;
63492;SDS011;49638;47.526;10.028;2023-11-21T12:06:43;4.57;;;1.90;;
63492;SDS011;49638;47.526;10.028;2023-11-21T12:09:46;4.55;;;1.60;;
63492;SDS011;49638;47.526;10.028;2023-11-21T12:12:51;1.80;;;1.50;;
63492;SDS011;49638;47.526;10.028;2023-11-21T12:15:52;1.63;;;1.10;;
63492;SDS011;49638;47.526;10.028;2023-11-21T12:18:54;2.88;;;1.30;;
63492;SDS011;49638;47.526;10.028;2023-11-21T12:21:55;1.60;;;1.50;;
63492;SDS011;49638;47.526;10.028;2023-11-21T12:24:55;22.13;;;2.42;;
63492;SDS011;49638;47.526;10.028;2023-11-21T12:27:56;2.22;;;1.50;;
63492;SDS011;49638;47.526;10.028;2023-11-21T12:30:57;48.35;;;3.15;;
63492;SDS011;49638;47.526;10.028;2023-11-21T12:33:57;1.75;;;1.60;;
63492;SDS011;49638;47.526;10.028;2023-11-21T12:36:58;23.60;;;2.50;;
63492;SDS011;49638;47.526;10.028;2023-11-21T12:39:59;50.30;;;3.33;;
63492;SDS011;49638;47.526;10.028;2023-11-21T12:43:00;6.65;;;2.05;;
63492;SDS011;49638;47.526;10.028;2023-11-21T12:46:08;2.35;;;1.80;;
63492;SDS011;49638;47.526;10.028;2023-11-21T12:49:11;1.80;;;1.60;;
63492;SDS011;49638;47.526;10.028;2023-11-21T12:52:17;1.88;;;1.58;;
63492;SDS011;49638;47.526;10.028;2023-11-21T12:55:18;3.05;;;2.38;;
63492;SDS011;49638;47.526;10.028;2023-11-21T12:58:22;4.53;;;2.00;;
63492;SDS011;49638;47.526;10.028;2023-11-21T13:01:25;2.00;;;1.80;;
63492;SDS011;49638;47.526;10.028;2023-11-21T13:04:32;1.67;;;1.40;;
63492;SDS011;49638;47.526;10.028;2023-11-21T13:07:44;3.60;;;1.95;;
63492;SDS011;49638;47.526;10.028;2023-11-21T13:10:48;3.33;;;2.00;;
63492;SDS011;49638;47.526;10.028;2023-11-21T13:13:51;7.28;;;3.20;;
63492;SDS011;49638;47.526;10.028;2023-11-21T13:16:53;5.25;;;3.03;;
63492;SDS011;49638;47.526;10.028;2023-11-21T13:19:53;4.30;;;2.30;;
63492;SDS011;49638;47.526;10.028;2023-11-21T13:22:54;2.58;;;1.23;;
63492;SDS011;49638;47.526;10.028;2023-11-21T13:26:00;2.20;;;1.25;;
63492;SDS011;49638;47.526;10.028;2023-11-21T13:29:04;1.67;;;1.30;;
63492;SDS011;49638;47.526;10.028;2023-11-21T13:32:05;1.75;;;1.42;;
63492;SDS011;49638;47.526;10.028;2023-11-21T13:35:06;3.08;;;1.35;;
63492;SDS011;49638;47.526;10.028;2023-11-21T13:38:15;2.33;;;1.17;;
63492;SDS011;49638;47.526;10.028;2023-11-21T13:41:22;1.92;;;1.50;;
63492;SDS011;49638;47.526;10.028;2023-11-21T13:44:30;1.85;;;1.58;;
63492;SDS011;49638;47.526;10.028;2023-11-21T13:47:38;1.95;;;1.45;;
63492;SDS011;49638;47.526;10.028;2023-11-21T13:50:40;3.42;;;1.50;;
63492;SDS011;49638;47.526;10.028;2023-11-21T13:53:48;2.15;;;1.60;;
63492;SDS011;49638;47.526;10.028;2023-11-21T13:56:50;2.10;;;1.67;;
63492;SDS011;49638;47.526;10.028;2023-11-21T13:59:51;2.22;;;1.60;;
63492;SDS011;49638;47.526;10.028;2023-11-21T14:02:51;1.75;;;1.50;;
63492;SDS011;49638;47.526;10.028;2023-11-21T14:05:52;1.83;;;1.48;;
63492;SDS011;49638;47.526;10.028;2023-11-21T14:08:52;1.55;;;1.30;;
63492;SDS011;49638;47.526;10.028;2023-11-21T14:11:56;2.67;;;1.30;;
63492;SDS011;49638;47.526;10.028;2023-11-21T14:14:57;1.85;;;1.50;;
63492;SDS011;49638;47.526;10.028;2023-11-21T14:17:58;2.35;;;1.40;;
63492;SDS011;49638;47.526;10.028;2023-11-21T14:20:59;1.75;;;1.25;;
63492;SDS011;49638;47.526;10.028;2023-11-21T14:24:00;2.53;;;1.30;;
63492;SDS011;49638;47.526;10.028;2023-11-21T14:27:00;3.50;;;1.40;;
63492;SDS011;49638;47.526;10.028;2023-11-21T14:30:01;2.30;;;1.00;;
63492;SDS011;49638;47.526;10.028;2023-11-21T14:33:01;1.48;;;1.00;;
63492;SDS011;49638;47.526;10.028;2023-11-21T14:36:02;2.00;;;1.13;;
63492;SDS011;49638;47.526;10.028;2023-11-21T14:39:03;1.67;;;0.80;;
63492;SDS011;49638;47.526;10.028;2023-11-21T14:42:08;0.75;;;0.70;;
63492;SDS011;49638;47.526;10.028;2023-11-21T14:45:09;3.20;;;1.70;;
63492;SDS011;49638;47.526;10.028;2023-11-21T14:48:12;2.93;;;2.53;;
63492;SDS011;49638;47.526;10.028;2023-11-21T14:51:16;3.03;;;2.50;;
63492;SDS011;49638;47.526;10.028;2023-11-21T14:54:31;3.78;;;2.53;;
63492;SDS011;49638;47.526;10.028;2023-11-21T14:57:55;2.95;;;2.10;;
63492;SDS011;49638;47.526;10.028;2023-11-21T15:00:56;3.00;;;2.47;;
63492;SDS011;49638;47.526;10.028;2023-11-21T15:04:01;3.35;;;2.40;;
63492;SDS011;49638;47.526;10.028;2023-11-21T15:07:05;3.75;;;2.72;;
63492;SDS011;49638;47.526;10.028;2023-11-21T15:10:06;2.83;;;2.53;;
63492;SDS011;49638;47.526;10.028;2023-11-21T15:13:11;3.42;;;2.70;;
63492;SDS011;49638;47.526;10.028;2023-11-21T15:16:11;2.78;;;2.40;;
63492;SDS011;49638;47.526;10.028;2023-11-21T15:19:12;5.80;;;2.50;;
63492;SDS011;49638;47.526;10.028;2023-11-21T15:22:18;13.02;;;8.13;;
63492;SDS011;49638;47.526;10.028;2023-11-21T15:25:18;6.20;;;3.30;;
63492;SDS011;49638;47.526;10.028;2023-11-21T15:28:19;5.07;;;2.83;;
63492;SDS011;49638;47.526;10.028;2023-11-21T15:31:19;16.60;;;7.95;;
63492;SDS011;49638;47.526;10.028;2023-11-21T15:34:24;6.90;;;4.38;;
63492;SDS011;49638;47.526;10.028;2023-11-21T15:37:28;8.43;;;5.25;;
63492;SDS011;49638;47.526;10.028;2023-11-21T15:40:29;2.88;;;2.40;;
63492;SDS011;49638;47.526;10.028;2023-11-21T15:43:29;3.22;;;2.65;;
63492;SDS011;49638;47.526;10.028;2023-11-21T15:46:29;3.08;;;2.40;;
63492;SDS011;49638;47.526;10.028;2023-11-21T15:49:31;3.38;;;2.60;;
63492;SDS011;49638;47.526;10.028;2023-11-21T15:52:34;6.63;;;3.00;;
63492;SDS011;49638;47.526;10.028;2023-11-21T15:55:34;4.43;;;3.03;;
63492;SDS011;49638;47.526;10.028;2023-11-21T15:58:41;4.22;;;2.88;;
63492;SDS011;49638;47.526;10.028;2023-11-21T16:01:46;4.78;;;3.13;;
63492;SDS011;49638;47.526;10.028;2023-11-21T16:04:48;5.65;;;3.10;;
63492;SDS011;49638;47.526;10.028;2023-11-21T16:07:48;5.65;;;4.00;;
63492;SDS011;49638;47.526;10.028;2023-11-21T16:10:50;4.97;;;3.38;;
63492;SDS011;49638;47.526;10.028;2023-11-21T16:13:50;4.38;;;2.90;;
63492;SDS011;49638;47.526;10.028;2023-11-21T16:16:51;5.18;;;3.17;;
63492;SDS011;49638;47.526;10.028;2023-11-21T16:19:52;4.43;;;2.72;;
63492;SDS011;49638;47.526;10.028;2023-11-21T16:22:52;3.45;;;2.67;;
63492;SDS011;49638;47.526;10.028;2023-11-21T16:25:54;8.43;;;3.65;;
63492;SDS011;49638;47.526;10.028;2023-11-21T16:28:54;7.53;;;3.65;;
63492;SDS011;49638;47.526;10.028;2023-11-21T16:31:55;2.80;;;2.33;;
63492;SDS011;49638;47.526;10.028;2023-11-21T16:34:55;2.20;;;1.88;;
63492;SDS011;49638;47.526;10.028;2023-11-21T16:37:56;1.38;;;1.27;;
63492;SDS011;49638;47.526;10.028;2023-11-21T16:40:57;1.30;;;1.20;;
63492;SDS011;49638;47.526;10.028;2023-11-21T16:43:58;4.63;;;2.63;;
63492;SDS011;49638;47.526;10.028;2023-11-21T16:46:58;5.05;;;2.85;;
63492;SDS011;49638;47.526;10.028;2023-11-21T16:50:05;4.50;;;3.05;;
63492;SDS011;49638;47.526;10.028;2023-11-21T16:53:05;207.02;;;67.97;;
63492;SDS011;49638;47.526;10.028;2023-11-21T16:56:07;352.42;;;139.45;;
63492;SDS011;49638;47.526;10.028;2023-11-21T16:59:07;479.50;;;201.77;;
63492;SDS011;49638;47.526;10.028;2023-11-21T17:02:08;415.85;;;173.77;;
63492;SDS011;49638;47.526;10.028;2023-11-21T17:05:12;400.90;;;170.68;;
63492;SDS011;49638;47.526;10.028;2023-11-21T17:08:12;512.95;;;212.35;;
63492;SDS011;49638;47.526;10.028;2023-11-21T17:11:15;641.28;;;255.63;;
63492;SDS011;49638;47.526;10.028;2023-11-21T17:14:15;349.38;;;137.38;;
63492;SDS011;49638;47.526;10.028;2023-11-21T17:17:16;107.32;;;51.78;;
63492;SDS011;49638;47.526;10.028;2023-11-21T17:20:16;16.58;;;10.15;;
63492;SDS011;49638;47.526;10.028;2023-11-21T17:23:17;5.55;;;5.05;;
63492;SDS011;49638;47.526;10.028;2023-11-21T17:26:17;4.97;;;4.20;;
63492;SDS011;49638;47.526;10.028;2023-11-21T17:29:19;4.97;;;4.03;;
63492;SDS011;49638;47.526;10.028;2023-11-21T17:32:19;6.20;;;4.88;;
63492;SDS011;49638;47.526;10.028;2023-11-21T17:35:19;10.60;;;5.30;;
63492;SDS011;49638;47.526;10.028;2023-11-21T17:38:21;11.90;;;8.00;;
63492;SDS011;49638;47.526;10.028;2023-11-21T17:41:21;7.82;;;5.57;;
63492;SDS011;49638;47.526;10.028;2023-11-21T17:44:22;8.32;;;6.45;;
63492;SDS011;49638;47.526;10.028;2023-11-21T17:47:22;18.55;;;10.95;;
63492;SDS011;49638;47.526;10.028;2023-11-21T17:50:25;15.07;;;8.82;;
63492;SDS011;49638;47.526;10.028;2023-11-21T17:53:25;20.00;;;12.23;;
63492;SDS011;49638;47.526;10.028;2023-11-21T17:56:26;15.75;;;10.95;;
63492;SDS011;49638;47.526;10.028;2023-11-21T17:59:26;8.93;;;5.65;;
63492;SDS011;49638;47.526;10.028;2023-11-21T18:02:26;7.32;;;3.63;;
63492;SDS011;49638;47.526;10.028;2023-11-21T18:05:28;5.57;;;4.35;;
63492;SDS011;49638;47.526;10.028;2023-11-21T18:08:28;13.90;;;8.88;;
63492;SDS011;49638;47.526;10.028;2023-11-21T18:11:29;5.40;;;4.22;;